Fascination — C6FM9 — position and weather

sailwx.info

Track history (hours):
 
Tides and Currents Weather Stations Pressure Air Temp Water Temp Dewpoint Dewpoint Depression Visibility Wind Speed Wind Dir Waves Ship Positions

Fascination

Operator: Carnival Cruise Lines

Last reported at 2018-Jun-18 06:00 UTC. Time now 2018-Jun-18 09:22 UTC.
Position N 18°36' W 065°24'.

Type: Ship. MMSI: 309682000.

Wind from 260 at 23 knots

Barometer 1021.3 mb
Air temperature 27.0 ° C
Visibility: greater than 10.8 NM
Dewpoint 24.1 ° C
Water temperature 26.5 ° C

Date/timePositionNaut miles runAvg speedWind from/ knotsBaromVisibWave heightAir tempDewpointWater temp
2018-Jun-18 06:00N 18°36' W 065°24'35 1.6 260 / 231021.310.8 27.024.126.5
2018-Jun-17 09:00N 18°42' W 066°00'13214.0 040 / 251016.2 5.4 27.024.125.0
2018-Jun-16 23:33N 18°03' W 063°47'117.3
2018-Jun-16 23:28N 18°03' W 063°45'1117.4
2018-Jun-16 22:50N 18°02' W 063°34'617.0
2018-Jun-16 22:30N 18°02' W 063°28'1117.3
2018-Jun-16 21:52N 18°01' W 063°16'617.3
2018-Jun-16 21:29N 18°01' W 063°09'6 4.6
2018-Jun-16 20:06N 18°01' W 063°03'0 0.0
2018-Jun-16 19:51N 18°01' W 063°03'0 0.0
2018-Jun-16 18:38N 18°01' W 063°03'0 0.0
2018-Jun-16 18:26N 18°01' W 063°03'0 0.0
2018-Jun-16 17:01N 18°01' W 063°03'0 0.0
2018-Jun-16 16:40N 18°01' W 063°03'0 0.0
2018-Jun-16 16:22N 18°01' W 063°03'0 0.0
2018-Jun-16 15:52N 18°01' W 063°03'0 0.0
2018-Jun-16 15:19N 18°01' W 063°03'0 0.0
2018-Jun-16 15:00N 18°01' W 063°03'0 0.0
2018-Jun-16 14:25N 18°01' W 063°03'0 0.0
2018-Jun-16 13:55N 18°01' W 063°03'0 0.0
2018-Jun-16 13:06N 18°01' W 063°03'0 0.0
2018-Jun-16 11:08N 18°01' W 063°03'0 0.0
2018-Jun-16 10:49N 18°01' W 063°03'0 0.9
2018-Jun-16 10:26N 18°00' W 063°03'2 5.8
2018-Jun-16 10:00N 18°00' W 063°05'610.5
2018-Jun-16 09:24N 18°01' W 063°12'410.0
2018-Jun-16 08:59N 18°01' W 063°17'5 9.7
2018-Jun-16 08:30N 18°01' W 063°21'5 9.7
2018-Jun-16 07:59N 18°02' W 063°26'5 9.5
2018-Jun-16 07:30N 18°05' W 063°31'5 9.4
2018-Jun-16 07:00N 18°07' W 063°35'6 9.3
2018-Jun-16 06:20N 18°10' W 063°41'412.8
2018-Jun-16 06:00N 18°06' W 063°42'322.4 130 / 261025.310.8 27.022.627.0
2018-Jun-16 05:51N 18°08' W 063°44'610.1
2018-Jun-16 05:18N 18°03' W 063°44'3 9.8
2018-Jun-16 05:00N 17°60' W 063°44'510.1
2018-Jun-16 04:29N 17°55' W 063°43'610.0
2018-Jun-16 03:51N 17°53' W 063°36'410.2
2018-Jun-16 03:30N 17°53' W 063°33'610.9
2018-Jun-16 02:59N 17°53' W 063°27'510.6
2018-Jun-16 02:28N 17°51' W 063°21'511.1
2018-Jun-16 02:00N 17°49' W 063°16'610.9
2018-Jun-16 01:25N 17°45' W 063°11'510.3
2018-Jun-16 00:57N 17°41' W 063°08'511.1
2018-Jun-16 00:29N 17°36' W 063°07'711.4
2018-Jun-15 23:54N 17°30' W 063°06'610.5
2018-Jun-15 23:18N 17°24' W 063°03'611.6
2018-Jun-15 22:45N 17°20' W 062°58'311.2
2018-Jun-15 22:29N 17°18' W 062°56'12 1.1
2018-Jun-15 10:51N 17°15' W 062°43'512.9
2018-Jun-15 10:26N 17°09' W 062°43'7015.7
2018-Jun-15 06:00N 16°06' W 062°12'9316.8 090 / 231021.310.8 27.022.626.0
2018-Jun-15 00:29N 14°42' W 061°31'816.3
2018-Jun-15 00:00N 14°35' W 061°27'916.4
2018-Jun-14 23:27N 14°27' W 061°23'716.7
2018-Jun-14 23:00N 14°21' W 061°19'816.6
2018-Jun-14 22:30N 14°15' W 061°13'816.1
2018-Jun-14 22:00N 14°08' W 061°08'11 5.7
2018-Jun-14 20:05N 14°01' W 060°60'0 0.0
2018-Jun-14 19:56N 14°01' W 060°60'0 0.0
2018-Jun-14 19:29N 14°01' W 060°60'0 0.0
2018-Jun-14 18:47N 14°01' W 060°60'0 0.0
2018-Jun-14 18:29N 14°01' W 060°60'0 0.0
2018-Jun-14 17:49N 14°01' W 060°60'0 0.0
2018-Jun-14 17:28N 14°01' W 060°60'0 0.0
2018-Jun-14 16:55N 14°01' W 060°60'0 0.0
2018-Jun-14 16:16N 14°01' W 060°60'0 0.0
2018-Jun-14 15:52N 14°01' W 060°60'0 0.0
2018-Jun-14 15:18N 14°01' W 060°60'0 0.0
2018-Jun-14 14:57N 14°01' W 060°60'0 0.0
2018-Jun-14 14:24N 14°01' W 060°60'0 0.0
2018-Jun-14 14:00N 14°01' W 060°60'0 0.0
2018-Jun-14 13:29N 14°01' W 060°60'0 0.0
2018-Jun-14 12:56N 14°01' W 060°60'0 0.0
2018-Jun-14 12:11N 14°01' W 060°60'0 0.0
2018-Jun-14 11:47N 14°01' W 060°60'0 0.0
2018-Jun-14 11:30N 14°01' W 060°60'2 2.6
2018-Jun-14 10:49N 14°02' W 061°01'510.3
2018-Jun-14 10:19N 14°01' W 061°07'32 6.4
2018-Jun-14 05:18N 13°30' W 060°56'76 3.8
2018-Jun-13 09:00N 13°06' W 059°42'8451.9 270 / 311015.2 5.4 27.024.125.0
2018-Jun-13 07:22N 14°09' W 060°40'617.3
2018-Jun-13 07:00N 14°10' W 060°46'919.0
2018-Jun-13 06:30N 14°13' W 060°55'918.2
2018-Jun-13 06:00N 14°16' W 061°04'918.9
2018-Jun-13 05:30N 14°23' W 061°11'1019.9
2018-Jun-13 05:00N 14°32' W 061°16'1019.9
2018-Jun-13 04:30N 14°40' W 061°22'8215.0
2018-Jun-12 23:00N 15°54' W 062°00'118 6.8 290 / 191015.2 5.4 28.023.725.0
2018-Jun-12 05:37N 17°42' W 062°49'215.7
2018-Jun-12 05:30N 17°43' W 062°51'1015.8
2018-Jun-12 04:51N 17°46' W 063°01'916.3
2018-Jun-12 04:19N 17°49' W 063°10'715.4
2018-Jun-12 03:51N 17°51' W 063°17'716.1
2018-Jun-12 03:24N 17°53' W 063°24'615.9
2018-Jun-12 03:00N 17°55' W 063°31'815.9
2018-Jun-12 02:30N 17°57' W 063°39'6215.7
2018-Jun-11 22:31N 18°08' W 064°43'115.3
2018-Jun-11 22:26N 18°09' W 064°45'715.3
2018-Jun-11 21:59N 18°12' W 064°51'8 0.6
2018-Jun-11 10:15N 18°18' W 064°55'2 8.2
2018-Jun-11 09:59N 18°16' W 064°57'32 8.1
2018-Jun-11 06:00N 18°36' W 065°24'0 0.0 230 / 241021.310.8 27.024.126.0
2018-Jun-10 06:00N 18°36' W 065°24'3415.2 060 / 291021.310.8 27.024.126.0
2018-Jun-10 03:46N 18°10' W 065°01'517.6
2018-Jun-10 03:30N 18°09' W 064°56'7117.5
2018-Jun-09 23:26N 18°02' W 063°42'916.6
2018-Jun-09 22:53N 18°02' W 063°32'717.0
2018-Jun-09 22:27N 18°01' W 063°24'817.5
2018-Jun-09 22:00N 18°01' W 063°16'916.3
2018-Jun-09 21:26N 18°00' W 063°06'3 6.8
2018-Jun-09 20:57N 18°01' W 063°03'0 0.0
2018-Jun-09 20:08N 18°01' W 063°03'0 0.0
2018-Jun-09 19:50N 18°01' W 063°03'0 0.0
2018-Jun-09 19:14N 18°01' W 063°03'0 0.0
2018-Jun-09 18:56N 18°01' W 063°03'0 0.0
2018-Jun-09 18:26N 18°01' W 063°03'0 0.0
2018-Jun-09 17:35N 18°01' W 063°03'0 0.0
2018-Jun-09 17:19N 18°01' W 063°03'0 0.0
2018-Jun-09 15:00N 18°01' W 063°03'0 0.0
2018-Jun-09 14:30N 18°01' W 063°03'0 0.0
2018-Jun-09 13:54N 18°01' W 063°03'0 0.0
2018-Jun-09 13:17N 18°01' W 063°03'0 0.0
2018-Jun-09 12:32N 18°01' W 063°03'0 0.0
2018-Jun-09 12:14N 18°01' W 063°03'0 0.0
2018-Jun-09 11:20N 18°01' W 063°03'0 0.0
2018-Jun-09 10:53N 18°01' W 063°03'0 0.6
2018-Jun-09 10:23N 18°00' W 063°03'3 6.5
2018-Jun-09 09:58N 18°00' W 063°06'510.0
2018-Jun-09 09:26N 18°01' W 063°11'510.4
2018-Jun-09 09:00N 18°01' W 063°16'510.3
2018-Jun-09 08:30N 18°01' W 063°22'510.0
2018-Jun-09 07:59N 18°03' W 063°27'510.4
2018-Jun-09 07:30N 18°05' W 063°31'510.2
2018-Jun-09 07:00N 18°08' W 063°36'8 6.1
2018-Jun-09 05:37N 18°04' W 063°44'211.0
2018-Jun-09 05:28N 18°02' W 063°44'511.0
2018-Jun-09 04:59N 17°57' W 063°43'6 9.0
2018-Jun-09 04:21N 17°54' W 063°39'4 9.9
2018-Jun-09 03:59N 17°53' W 063°35'510.2
2018-Jun-09 03:29N 17°53' W 063°30'510.3
2018-Jun-09 03:00N 17°52' W 063°24'611.0
2018-Jun-09 02:30N 17°50' W 063°19'610.8
2018-Jun-09 01:59N 17°47' W 063°14'510.9
2018-Jun-09 01:29N 17°44' W 063°09'610.4
2018-Jun-09 00:58N 17°39' W 063°07'510.6
2018-Jun-09 00:27N 17°34' W 063°07'610.9
2018-Jun-08 23:56N 17°28' W 063°06'710.5
2018-Jun-08 23:17N 17°23' W 063°01'510.9
2018-Jun-08 22:52N 17°20' W 062°58'14 1.2
2018-Jun-08 11:04N 17°17' W 062°43'210.3
2018-Jun-08 10:50N 17°14' W 062°43'513.9
2018-Jun-08 10:28N 17°09' W 062°43'  
Track history (hours):
 
Tides and Currents Weather Stations Pressure Air Temp Water Temp Dewpoint Dewpoint Depression Visibility Wind Speed Wind Dir Waves Ship Positions

Fascination

Operator: Carnival Cruise Lines

Last reported at 2018-Jun-18 06:00 UTC. Time now 2018-Jun-18 09:22 UTC.
Position N 18°36' W 065°24'.

Type: Ship. MMSI: 309682000.

Wind from 260 at 23 knots

Barometer 1021.3 mb
Air temperature 27.0 ° C
Visibility: greater than 10.8 NM
Dewpoint 24.1 ° C
Water temperature 26.5 ° C

Date/timePositionNaut miles runAvg speedWind from/ knotsBaromVisibWave heightAir tempDewpointWater temp
2018-Jun-18 06:00N 18°36' W 065°24'35 1.6 260 / 231021.310.8 27.024.126.5
2018-Jun-17 09:00N 18°42' W 066°00'13214.0 040 / 251016.2 5.4 27.024.125.0
2018-Jun-16 23:33N 18°03' W 063°47'117.3
2018-Jun-16 23:28N 18°03' W 063°45'1117.4
2018-Jun-16 22:50N 18°02' W 063°34'617.0
2018-Jun-16 22:30N 18°02' W 063°28'1117.3
2018-Jun-16 21:52N 18°01' W 063°16'617.3
2018-Jun-16 21:29N 18°01' W 063°09'6 4.6
2018-Jun-16 20:06N 18°01' W 063°03'0 0.0
2018-Jun-16 19:51N 18°01' W 063°03'0 0.0
2018-Jun-16 18:38N 18°01' W 063°03'0 0.0
2018-Jun-16 18:26N 18°01' W 063°03'0 0.0
2018-Jun-16 17:01N 18°01' W 063°03'0 0.0
2018-Jun-16 16:40N 18°01' W 063°03'0 0.0
2018-Jun-16 16:22N 18°01' W 063°03'0 0.0
2018-Jun-16 15:52N 18°01' W 063°03'0 0.0
2018-Jun-16 15:19N 18°01' W 063°03'0 0.0
2018-Jun-16 15:00N 18°01' W 063°03'0 0.0
2018-Jun-16 14:25N 18°01' W 063°03'0 0.0
2018-Jun-16 13:55N 18°01' W 063°03'0 0.0
2018-Jun-16 13:06N 18°01' W 063°03'0 0.0
2018-Jun-16 11:08N 18°01' W 063°03'0 0.0
2018-Jun-16 10:49N 18°01' W 063°03'0 0.9
2018-Jun-16 10:26N 18°00' W 063°03'2 5.8
2018-Jun-16 10:00N 18°00' W 063°05'610.5
2018-Jun-16 09:24N 18°01' W 063°12'410.0
2018-Jun-16 08:59N 18°01' W 063°17'5 9.7
2018-Jun-16 08:30N 18°01' W 063°21'5 9.7
2018-Jun-16 07:59N 18°02' W 063°26'5 9.5
2018-Jun-16 07:30N 18°05' W 063°31'5 9.4
2018-Jun-16 07:00N 18°07' W 063°35'6 9.3
2018-Jun-16 06:20N 18°10' W 063°41'412.8
2018-Jun-16 06:00N 18°06' W 063°42'322.4 130 / 261025.310.8 27.022.627.0
2018-Jun-16 05:51N 18°08' W 063°44'610.1
2018-Jun-16 05:18N 18°03' W 063°44'3 9.8
2018-Jun-16 05:00N 17°60' W 063°44'510.1
2018-Jun-16 04:29N 17°55' W 063°43'610.0
2018-Jun-16 03:51N 17°53' W 063°36'410.2
2018-Jun-16 03:30N 17°53' W 063°33'610.9
2018-Jun-16 02:59N 17°53' W 063°27'510.6
2018-Jun-16 02:28N 17°51' W 063°21'511.1
2018-Jun-16 02:00N 17°49' W 063°16'610.9
2018-Jun-16 01:25N 17°45' W 063°11'510.3
2018-Jun-16 00:57N 17°41' W 063°08'511.1
2018-Jun-16 00:29N 17°36' W 063°07'711.4
2018-Jun-15 23:54N 17°30' W 063°06'610.5
2018-Jun-15 23:18N 17°24' W 063°03'611.6
2018-Jun-15 22:45N 17°20' W 062°58'311.2
2018-Jun-15 22:29N 17°18' W 062°56'12 1.1
2018-Jun-15 10:51N 17°15' W 062°43'512.9
2018-Jun-15 10:26N 17°09' W 062°43'7015.7
2018-Jun-15 06:00N 16°06' W 062°12'9316.8 090 / 231021.310.8 27.022.626.0
2018-Jun-15 00:29N 14°42' W 061°31'816.3
2018-Jun-15 00:00N 14°35' W 061°27'916.4
2018-Jun-14 23:27N 14°27' W 061°23'716.7
2018-Jun-14 23:00N 14°21' W 061°19'816.6
2018-Jun-14 22:30N 14°15' W 061°13'816.1
2018-Jun-14 22:00N 14°08' W 061°08'11 5.7
2018-Jun-14 20:05N 14°01' W 060°60'0 0.0
2018-Jun-14 19:56N 14°01' W 060°60'0 0.0
2018-Jun-14 19:29N 14°01' W 060°60'0 0.0
2018-Jun-14 18:47N 14°01' W 060°60'0 0.0
2018-Jun-14 18:29N 14°01' W 060°60'0 0.0
2018-Jun-14 17:49N 14°01' W 060°60'0 0.0
2018-Jun-14 17:28N 14°01' W 060°60'0 0.0
2018-Jun-14 16:55N 14°01' W 060°60'0 0.0
2018-Jun-14 16:16N 14°01' W 060°60'0 0.0
2018-Jun-14 15:52N 14°01' W 060°60'0 0.0
2018-Jun-14 15:18N 14°01' W 060°60'0 0.0
2018-Jun-14 14:57N 14°01' W 060°60'0 0.0
2018-Jun-14 14:24N 14°01' W 060°60'0 0.0
2018-Jun-14 14:00N 14°01' W 060°60'0 0.0
2018-Jun-14 13:29N 14°01' W 060°60'0 0.0
2018-Jun-14 12:56N 14°01' W 060°60'0 0.0
2018-Jun-14 12:11N 14°01' W 060°60'0 0.0
2018-Jun-14 11:47N 14°01' W 060°60'0 0.0
2018-Jun-14 11:30N 14°01' W 060°60'2 2.6
2018-Jun-14 10:49N 14°02' W 061°01'510.3
2018-Jun-14 10:19N 14°01' W 061°07'32 6.4
2018-Jun-14 05:18N 13°30' W 060°56'76 3.8
2018-Jun-13 09:00N 13°06' W 059°42'8451.9 270 / 311015.2 5.4 27.024.125.0
2018-Jun-13 07:22N 14°09' W 060°40'617.3
2018-Jun-13 07:00N 14°10' W 060°46'919.0
2018-Jun-13 06:30N 14°13' W 060°55'918.2
2018-Jun-13 06:00N 14°16' W 061°04'918.9
2018-Jun-13 05:30N 14°23' W 061°11'1019.9
2018-Jun-13 05:00N 14°32' W 061°16'1019.9
2018-Jun-13 04:30N 14°40' W 061°22'8215.0
2018-Jun-12 23:00N 15°54' W 062°00'118 6.8 290 / 191015.2 5.4 28.023.725.0
2018-Jun-12 05:37N 17°42' W 062°49'215.7
2018-Jun-12 05:30N 17°43' W 062°51'1015.8
2018-Jun-12 04:51N 17°46' W 063°01'916.3
2018-Jun-12 04:19N 17°49' W 063°10'715.4
2018-Jun-12 03:51N 17°51' W 063°17'716.1
2018-Jun-12 03:24N 17°53' W 063°24'615.9
2018-Jun-12 03:00N 17°55' W 063°31'815.9
2018-Jun-12 02:30N 17°57' W 063°39'6215.7
2018-Jun-11 22:31N 18°08' W 064°43'115.3
2018-Jun-11 22:26N 18°09' W 064°45'715.3
2018-Jun-11 21:59N 18°12' W 064°51'8 0.6
2018-Jun-11 10:15N 18°18' W 064°55'2 8.2
2018-Jun-11 09:59N 18°16' W 064°57'32 8.1
2018-Jun-11 06:00N 18°36' W 065°24'0 0.0 230 / 241021.310.8 27.024.126.0
2018-Jun-10 06:00N 18°36' W 065°24'3415.2 060 / 291021.310.8 27.024.126.0
2018-Jun-10 03:46N 18°10' W 065°01'517.6
2018-Jun-10 03:30N 18°09' W 064°56'7117.5
2018-Jun-09 23:26N 18°02' W 063°42'916.6
2018-Jun-09 22:53N 18°02' W 063°32'717.0
2018-Jun-09 22:27N 18°01' W 063°24'817.5
2018-Jun-09 22:00N 18°01' W 063°16'916.3
2018-Jun-09 21:26N 18°00' W 063°06'3 6.8
2018-Jun-09 20:57N 18°01' W 063°03'0 0.0
2018-Jun-09 20:08N 18°01' W 063°03'0 0.0
2018-Jun-09 19:50N 18°01' W 063°03'0 0.0
2018-Jun-09 19:14N 18°01' W 063°03'0 0.0
2018-Jun-09 18:56N 18°01' W 063°03'0 0.0
2018-Jun-09 18:26N 18°01' W 063°03'0 0.0
2018-Jun-09 17:35N 18°01' W 063°03'0 0.0
2018-Jun-09 17:19N 18°01' W 063°03'0 0.0
2018-Jun-09 15:00N 18°01' W 063°03'0 0.0
2018-Jun-09 14:30N 18°01' W 063°03'0 0.0
2018-Jun-09 13:54N 18°01' W 063°03'0 0.0
2018-Jun-09 13:17N 18°01' W 063°03'0 0.0
2018-Jun-09 12:32N 18°01' W 063°03'0 0.0
2018-Jun-09 12:14N 18°01' W 063°03'0 0.0
2018-Jun-09 11:20N 18°01' W 063°03'0 0.0
2018-Jun-09 10:53N 18°01' W 063°03'0 0.6
2018-Jun-09 10:23N 18°00' W 063°03'3 6.5
2018-Jun-09 09:58N 18°00' W 063°06'510.0
2018-Jun-09 09:26N 18°01' W 063°11'510.4
2018-Jun-09 09:00N 18°01' W 063°16'510.3
2018-Jun-09 08:30N 18°01' W 063°22'510.0
2018-Jun-09 07:59N 18°03' W 063°27'510.4
2018-Jun-09 07:30N 18°05' W 063°31'510.2
2018-Jun-09 07:00N 18°08' W 063°36'8 6.1
2018-Jun-09 05:37N 18°04' W 063°44'211.0
2018-Jun-09 05:28N 18°02' W 063°44'511.0
2018-Jun-09 04:59N 17°57' W 063°43'6 9.0
2018-Jun-09 04:21N 17°54' W 063°39'4 9.9
2018-Jun-09 03:59N 17°53' W 063°35'510.2
2018-Jun-09 03:29N 17°53' W 063°30'510.3
2018-Jun-09 03:00N 17°52' W 063°24'611.0
2018-Jun-09 02:30N 17°50' W 063°19'610.8
2018-Jun-09 01:59N 17°47' W 063°14'510.9
2018-Jun-09 01:29N 17°44' W 063°09'610.4
2018-Jun-09 00:58N 17°39' W 063°07'510.6
2018-Jun-09 00:27N 17°34' W 063°07'610.9
2018-Jun-08 23:56N 17°28' W 063°06'710.5
2018-Jun-08 23:17N 17°23' W 063°01'510.9
2018-Jun-08 22:52N 17°20' W 062°58'14 1.2
2018-Jun-08 11:04N 17°17' W 062°43'210.3
2018-Jun-08 10:50N 17°14' W 062°43'513.9
2018-Jun-08 10:28N 17°09' W 062°43'  

Dump ship's entire track history